Time;durP1;ratioP1;P1;durP2;ratioP2;P2;SDS_P1;SDS_P2;PMS_P1;PMS_P2;Temp;Humidity;BMP_temperature;BMP_pressure;BME280_temperature;BME280_humidity;BME280_pressure;Samples;Min_cycle;Max_cycle;Signal;HPM_P1;HPM_P2
2021/07/31 00:02:19;;;;;;;3.90;0.60;;;17.90;67.40;;;;;;5093171;28;20060;-74
2021/07/31 00:04:45;;;;;;;2.20;0.50;;;17.90;67.40;;;;;;5092510;28;20476;-75
2021/07/31 00:07:10;;;;;;;8.75;0.80;;;17.90;67.40;;;;;;5093821;28;20032;-74
2021/07/31 00:09:36;;;;;;;7.50;0.55;;;17.90;67.40;;;;;;5092905;28;20127;-75
2021/07/31 00:12:02;;;;;;;4.80;0.60;;;18.00;67.40;;;;;;5094149;28;20086;-75
2021/07/31 00:14:31;;;;;;;3.75;0.40;;;18.00;67.30;;;;;;5076272;28;20475;-75
2021/07/31 00:16:57;;;;;;;4.13;0.70;;;18.00;67.30;;;;;;5093140;28;20107;-75
2021/07/31 00:19:23;;;;;;;2.22;0.40;;;18.00;67.30;;;;;;5077580;28;20028;-75
2021/07/31 00:21:50;;;;;;;4.95;0.70;;;18.00;68.00;;;;;;5099221;28;20043;-74
2021/07/31 00:24:15;;;;;;;2.97;0.60;;;17.90;68.30;;;;;;5085411;28;20028;-76
2021/07/31 00:26:41;;;;;;;3.63;0.40;;;17.90;68.70;;;;;;5089757;28;20035;-75
2021/07/31 00:29:07;;;;;;;2.63;0.47;;;17.90;68.70;;;;;;5109571;28;20032;-75
2021/07/31 00:31:33;;;;;;;1.80;0.45;;;17.90;68.60;;;;;;5111081;28;20032;-73
2021/07/31 00:33:58;;;;;;;3.63;0.50;;;17.90;68.30;;;;;;5109833;28;20095;-75
2021/07/31 00:36:25;;;;;;;3.28;0.50;;;17.80;68.30;;;;;;5091864;28;20029;-74
2021/07/31 00:38:50;;;;;;;2.70;0.40;;;17.80;68.30;;;;;;5111173;28;20016;-76
2021/07/31 00:41:16;;;;;;;3.28;0.40;;;17.90;68.30;;;;;;5108391;28;20345;-74
2021/07/31 00:43:42;;;;;;;4.28;0.50;;;17.90;68.20;;;;;;5106901;28;20020;-76
2021/07/31 00:46:08;;;;;;;3.40;0.50;;;17.90;68.10;;;;;;5079648;28;20047;-75
2021/07/31 00:48:34;;;;;;;4.57;0.63;;;17.90;68.00;;;;;;5095416;28;20032;-74
2021/07/31 00:51:00;;;;;;;3.58;0.70;;;17.90;68.00;;;;;;5093708;28;20162;-75
2021/07/31 00:53:26;;;;;;;2.40;0.50;;;17.90;68.10;;;;;;5093888;28;20020;-75
2021/07/31 00:55:56;;;;;;;7.25;0.60;;;17.90;68.00;;;;;;5092370;28;20032;-74
2021/07/31 00:58:23;;;;;;;2.88;0.40;;;17.90;67.90;;;;;;5091896;28;20028;-74
2021/07/31 01:00:49;;;;;;;3.38;0.60;;;17.90;68.00;;;;;;5093173;28;20024;-74
2021/07/31 01:03:15;;;;;;;2.58;0.65;;;17.90;68.00;;;;;;5091935;28;20031;-74
2021/07/31 01:05:40;;;;;;;2.25;0.50;;;17.90;68.30;;;;;;5091871;28;20043;-74
2021/07/31 01:08:06;;;;;;;3.38;0.50;;;17.80;68.40;;;;;;5091978;28;20028;-74
2021/07/31 01:10:32;;;;;;;3.38;0.70;;;17.70;68.70;;;;;;5092258;28;20496;-75
2021/07/31 01:13:00;;;;;;;4.65;0.57;;;17.60;69.10;;;;;;5075258;28;20024;-78
2021/07/31 01:15:25;;;;;;;2.78;0.60;;;17.50;69.40;;;;;;5091982;28;20028;-74
2021/07/31 01:17:51;;;;;;;2.40;0.60;;;17.50;69.60;;;;;;5092249;28;20081;-74
2021/07/31 01:20:17;;;;;;;2.80;0.70;;;17.60;69.60;;;;;;5092243;28;20027;-74
2021/07/31 01:22:43;;;;;;;3.28;0.60;;;17.60;69.70;;;;;;5075202;28;20058;-75
2021/07/31 01:25:09;;;;;;;4.88;0.60;;;17.60;69.60;;;;;;5075070;28;20481;-75
2021/07/31 01:27:35;;;;;;;4.05;0.80;;;17.50;69.80;;;;;;5093338;28;20533;-76
2021/07/31 01:30:02;;;;;;;3.22;0.70;;;17.50;70.00;;;;;;5093611;28;20111;-77
2021/07/31 01:32:27;;;;;;;5.70;0.75;;;17.40;70.20;;;;;;5077259;28;20039;-75
2021/07/31 01:34:53;;;;;;;5.35;0.60;;;17.30;70.40;;;;;;5095734;28;20040;-76
2021/07/31 01:37:18;;;;;;;5.32;0.73;;;17.30;70.70;;;;;;5062227;28;20456;-76
2021/07/31 01:39:46;;;;;;;4.30;0.70;;;17.40;70.80;;;;;;5078888;28;20032;-76
2021/07/31 01:42:11;;;;;;;4.00;0.60;;;17.30;70.80;;;;;;5078848;28;20078;-76
2021/07/31 01:44:37;;;;;;;3.38;0.80;;;17.30;71.00;;;;;;5078048;28;20116;-76
2021/07/31 01:47:03;;;;;;;4.55;0.65;;;17.30;71.10;;;;;;5095064;28;20134;-79
2021/07/31 01:49:28;;;;;;;5.25;0.60;;;17.20;71.40;;;;;;5079191;28;20384;-76
2021/07/31 01:51:54;;;;;;;4.45;0.70;;;17.20;71.60;;;;;;5095471;28;20547;-76
2021/07/31 01:54:20;;;;;;;3.75;0.70;;;17.10;71.70;;;;;;5095828;28;20068;-76
2021/07/31 01:56:47;;;;;;;3.90;0.70;;;17.10;71.80;;;;;;5095821;28;20028;-75
2021/07/31 01:59:14;;;;;;;4.63;0.55;;;17.20;71.90;;;;;;5096686;28;20035;-77
2021/07/31 02:01:39;;;;;;;4.90;0.70;;;17.20;71.90;;;;;;5095060;28;20026;-77
2021/07/31 02:04:05;;;;;;;5.63;0.70;;;17.30;71.80;;;;;;5077774;28;20040;-79
2021/07/31 02:06:31;;;;;;;3.65;0.77;;;17.20;71.60;;;;;;5094588;28;20024;-76
2021/07/31 02:08:56;;;;;;;3.97;0.60;;;17.20;71.90;;;;;;5095539;28;20439;-76
2021/07/31 02:11:22;;;;;;;3.80;0.60;;;17.20;71.90;;;;;;5094702;28;20032;-77
2021/07/31 02:13:48;;;;;;;6.05;1.08;;;17.30;72.00;;;;;;5094704;28;20034;-76
2021/07/31 02:16:21;;;;;;;5.20;0.75;;;17.30;72.00;;;;;;5095917;28;20433;-75
2021/07/31 02:18:47;;;;;;;4.15;0.90;;;17.40;72.10;;;;;;5096043;28;20442;-74
2021/07/31 02:21:12;;;;;;;4.15;0.70;;;17.40;72.00;;;;;;5077385;28;20046;-76
2021/07/31 02:23:38;;;;;;;3.92;0.80;;;17.40;72.00;;;;;;5061127;28;20032;-74
2021/07/31 02:26:04;;;;;;;4.13;0.90;;;17.40;72.00;;;;;;5094115;28;20400;-74
2021/07/31 02:28:29;;;;;;;5.68;0.77;;;17.40;71.90;;;;;;5095009;28;20024;-74
2021/07/31 02:30:55;;;;;;;4.60;0.80;;;17.50;71.90;;;;;;5095733;28;20028;-74
2021/07/31 02:33:20;;;;;;;7.63;0.93;;;17.50;71.80;;;;;;5095605;28;20032;-74
2021/07/31 02:35:48;;;;;;;5.40;0.80;;;17.50;71.80;;;;;;5097583;28;20039;-74
2021/07/31 02:38:13;;;;;;;4.80;0.80;;;17.50;71.80;;;;;;5098673;28;20035;-79
2021/07/31 02:40:39;;;;;;;6.05;0.80;;;17.50;71.90;;;;;;5099475;28;20472;-75
2021/07/31 02:43:05;;;;;;;3.00;0.65;;;17.50;71.90;;;;;;5096708;28;20385;-75
2021/07/31 02:45:30;;;;;;;2.95;0.70;;;17.50;71.80;;;;;;5082667;28;20442;-75
2021/07/31 02:47:56;;;;;;;6.13;0.70;;;17.50;71.90;;;;;;5082704;28;20078;-75
2021/07/31 02:50:22;;;;;;;4.80;0.70;;;17.50;71.80;;;;;;5099897;28;20433;-75
2021/07/31 02:52:47;;;;;;;4.95;0.88;;;17.50;71.80;;;;;;5094145;28;20101;-76
2021/07/31 02:55:13;;;;;;;5.05;0.80;;;17.60;71.80;;;;;;5093811;28;20067;-79
2021/07/31 02:57:39;;;;;;;7.80;1.08;;;17.60;71.90;;;;;;5093702;28;20032;-75
2021/07/31 03:00:06;;;;;;;9.48;1.10;;;17.50;72.50;;;;;;5094105;28;20028;-76
2021/07/31 03:02:31;;;;;;;3.65;0.80;;;17.40;72.10;;;;;;5093772;28;20024;-76
2021/07/31 03:04:57;;;;;;;6.75;0.90;;;17.40;72.10;;;;;;5093269;28;20100;-76
2021/07/31 03:07:23;;;;;;;5.35;0.82;;;17.40;72.10;;;;;;5093624;28;20032;-76
2021/07/31 03:09:48;;;;;;;4.05;0.82;;;17.50;72.20;;;;;;5093737;28;20524;-76
2021/07/31 03:12:15;;;;;;;3.60;0.70;;;17.40;72.20;;;;;;5076743;28;20024;-77
2021/07/31 03:14:41;;;;;;;3.28;0.90;;;17.30;72.30;;;;;;5076698;28;20034;-76
2021/07/31 03:17:06;;;;;;;6.13;0.90;;;17.30;72.60;;;;;;5093624;28;20054;-76
2021/07/31 03:19:32;;;;;;;4.70;0.77;;;17.20;72.80;;;;;;5093289;28;20027;-76
2021/07/31 03:21:57;;;;;;;4.68;1.02;;;17.20;72.90;;;;;;5076569;28;20119;-76
2021/07/31 03:24:23;;;;;;;4.28;0.95;;;17.10;73.10;;;;;;5093217;28;20086;-76
2021/07/31 03:26:49;;;;;;;6.10;0.90;;;17.10;73.30;;;;;;5092985;28;20024;-76
2021/07/31 03:29:14;;;;;;;3.85;1.10;;;17.00;73.50;;;;;;5076602;28;20035;-76
2021/07/31 03:31:40;;;;;;;5.15;1.00;;;16.90;73.70;;;;;;5076192;28;20531;-76
2021/07/31 03:34:05;;;;;;;6.97;1.08;;;16.90;73.80;;;;;;5059650;28;20028;-76
2021/07/31 03:36:31;;;;;;;4.97;1.05;;;17.00;73.90;;;;;;5076767;28;20032;-76
2021/07/31 03:38:57;;;;;;;5.53;1.13;;;17.00;74.00;;;;;;5094008;28;20107;-76
2021/07/31 03:41:22;;;;;;;3.80;0.90;;;17.10;74.00;;;;;;5059216;28;20445;-82
2021/07/31 03:43:48;;;;;;;4.55;1.02;;;17.00;73.90;;;;;;5092838;28;20491;-75
2021/07/31 03:46:13;;;;;;;6.78;1.17;;;17.10;74.10;;;;;;5092865;28;20057;-75
2021/07/31 03:48:39;;;;;;;4.45;0.80;;;17.10;74.00;;;;;;5092690;28;20028;-76
2021/07/31 03:51:05;;;;;;;6.88;1.40;;;17.10;73.90;;;;;;5094142;28;20035;-76
2021/07/31 03:53:30;;;;;;;4.97;0.90;;;17.10;74.00;;;;;;5092757;28;20035;-76
2021/07/31 03:55:57;;;;;;;7.47;1.25;;;17.10;74.00;;;;;;5075503;28;20035;-76
2021/07/31 03:58:22;;;;;;;4.22;1.33;;;17.00;74.10;;;;;;5092676;28;20078;-78
2021/07/31 04:00:48;;;;;;;5.25;0.95;;;17.00;74.60;;;;;;5093455;28;20436;-76
2021/07/31 04:03:14;;;;;;;5.57;1.00;;;17.00;74.20;;;;;;5093502;28;20468;-76
2021/07/31 04:05:40;;;;;;;4.85;0.88;;;17.00;74.30;;;;;;5092282;28;20036;-76
2021/07/31 04:08:06;;;;;;;5.25;1.27;;;17.10;74.40;;;;;;5093622;28;20035;-76
2021/07/31 04:10:32;;;;;;;4.15;0.90;;;17.10;74.30;;;;;;5093503;28;20036;-76
2021/07/31 04:12:58;;;;;;;5.25;1.10;;;17.10;74.20;;;;;;5093519;28;20097;-76
2021/07/31 04:15:24;;;;;;;5.53;1.17;;;17.20;74.20;;;;;;5092063;28;20123;-77
2021/07/31 04:17:49;;;;;;;4.07;0.93;;;17.10;74.30;;;;;;5075303;28;20024;-76
2021/07/31 04:20:15;;;;;;;4.13;1.20;;;17.10;74.40;;;;;;5075782;28;20028;-76
2021/07/31 04:22:41;;;;;;;4.60;1.20;;;17.10;74.50;;;;;;5076187;28;20020;-76
2021/07/31 04:25:07;;;;;;;4.38;1.23;;;17.10;74.60;;;;;;5076158;28;20181;-76
2021/07/31 04:27:33;;;;;;;5.25;1.23;;;17.10;74.70;;;;;;5093503;28;20101;-77
2021/07/31 04:30:00;;;;;;;2.83;1.02;;;17.10;74.80;;;;;;5092255;28;20402;-76
2021/07/31 04:32:26;;;;;;;5.47;0.90;;;17.10;74.80;;;;;;5075584;28;20028;-80
2021/07/31 04:34:51;;;;;;;4.38;1.02;;;17.10;74.90;;;;;;5092488;28;20114;-76
2021/07/31 04:37:17;;;;;;;4.32;0.98;;;17.10;75.00;;;;;;5092207;28;20464;-76
2021/07/31 04:39:42;;;;;;;6.28;1.23;;;17.10;75.00;;;;;;5075543;28;20030;-76
2021/07/31 04:42:08;;;;;;;4.35;1.15;;;17.10;75.10;;;;;;5075195;28;20055;-76
2021/07/31 04:44:34;;;;;;;4.13;1.17;;;17.10;75.30;;;;;;5091605;28;20040;-76
2021/07/31 04:47:00;;;;;;;4.05;1.00;;;17.10;75.30;;;;;;5058817;28;20077;-76
2021/07/31 04:49:25;;;;;;;5.45;1.30;;;17.10;75.30;;;;;;5092004;28;20030;-76
2021/07/31 04:51:51;;;;;;;3.88;1.10;;;17.10;75.50;;;;;;5091970;28;20095;-76
2021/07/31 04:54:16;;;;;;;3.80;1.00;;;17.10;75.50;;;;;;5092270;28;20055;-76
2021/07/31 04:56:43;;;;;;;6.25;1.40;;;17.10;75.50;;;;;;5075527;28;20032;-76
2021/07/31 04:59:09;;;;;;;4.43;1.35;;;17.10;75.50;;;;;;5075164;28;20465;-76
2021/07/31 05:01:34;;;;;;;5.07;1.00;;;17.10;75.50;;;;;;5091984;28;20115;-76
2021/07/31 05:04:00;;;;;;;3.50;0.90;;;17.20;75.40;;;;;;5091618;28;20028;-77
2021/07/31 05:06:26;;;;;;;5.05;1.10;;;17.20;75.40;;;;;;5059296;28;20028;-76
2021/07/31 05:08:51;;;;;;;6.13;1.45;;;17.20;75.30;;;;;;5096032;28;20028;-77
2021/07/31 05:11:21;;;;;;;4.75;1.35;;;17.20;75.50;;;;;;5095646;28;20036;-77
2021/07/31 05:13:48;;;;;;;4.72;1.30;;;17.20;75.50;;;;;;5095700;28;20027;-77
2021/07/31 05:16:15;;;;;;;4.07;1.58;;;17.20;75.50;;;;;;5097312;28;20036;-74
2021/07/31 05:18:42;;;;;;;6.55;1.23;;;17.20;75.60;;;;;;5078821;28;20118;-75
2021/07/31 05:21:08;;;;;;;4.60;1.33;;;17.30;75.60;;;;;;5095605;28;20119;-76
2021/07/31 05:23:34;;;;;;;7.05;1.40;;;17.30;75.60;;;;;;5078595;28;20360;-81
2021/07/31 05:26:00;;;;;;;6.43;1.20;;;17.30;75.50;;;;;;5095458;28;20058;-76
2021/07/31 05:28:25;;;;;;;5.53;1.40;;;17.30;75.50;;;;;;5095395;28;20024;-76
2021/07/31 05:30:51;;;;;;;7.07;1.90;;;17.30;75.40;;;;;;5078405;28;20024;-75
2021/07/31 05:33:16;;;;;;;3.33;1.10;;;17.30;75.60;;;;;;5095395;28;20024;-75
2021/07/31 05:35:42;;;;;;;5.90;1.60;;;17.30;75.60;;;;;;5078390;28;20032;-76
2021/07/31 05:38:08;;;;;;;5.57;1.23;;;17.20;75.80;;;;;;5078483;28;20375;-75
2021/07/31 05:40:33;;;;;;;6.97;1.60;;;17.20;75.90;;;;;;5095279;28;20073;-76
2021/07/31 05:42:59;;;;;;;4.32;1.20;;;17.20;75.90;;;;;;5095379;28;20044;-76
2021/07/31 05:45:26;;;;;;;6.00;1.33;;;17.30;75.90;;;;;;5096948;28;20507;-76
2021/07/31 05:47:56;;;;;;;3.83;1.42;;;17.30;76.00;;;;;;5096057;28;20028;-76
2021/07/31 05:50:22;;;;;;;5.45;1.40;;;17.30;76.00;;;;;;5095917;28;20038;-76
2021/07/31 05:52:48;;;;;;;4.18;1.10;;;17.30;76.00;;;;;;5094849;28;20085;-76
2021/07/31 05:55:13;;;;;;;6.55;1.33;;;17.30;75.90;;;;;;5095143;28;20032;-76
2021/07/31 05:57:39;;;;;;;4.32;1.10;;;17.20;76.00;;;;;;5096817;28;20052;-79
2021/07/31 06:00:05;;;;;;;4.38;1.20;;;17.20;76.00;;;;;;5096298;28;20109;-76
2021/07/31 06:02:31;;;;;;;5.53;1.23;;;17.20;76.50;;;;;;5094838;28;20024;-76
2021/07/31 06:04:56;;;;;;;6.97;1.30;;;17.20;76.20;;;;;;5094713;28;20039;-77
2021/07/31 06:07:22;;;;;;;5.22;1.25;;;17.20;76.20;;;;;;5078119;28;20032;-76
2021/07/31 06:09:50;;;;;;;4.88;1.15;;;17.30;76.00;;;;;;5095274;28;20032;-76
2021/07/31 06:12:16;;;;;;;4.95;1.35;;;17.40;75.80;;;;;;5094668;28;20020;-76
2021/07/31 06:14:42;;;;;;;4.93;1.48;;;17.50;75.70;;;;;;5094783;28;20031;-79
2021/07/31 06:17:08;;;;;;;5.55;1.35;;;17.80;75.40;;;;;;5094582;28;20031;-76
2021/07/31 06:19:34;;;;;;;7.45;1.67;;;18.10;74.40;;;;;;5094669;28;20032;-77
2021/07/31 06:22:01;;;;;;;5.72;1.63;;;18.30;73.60;;;;;;5094673;28;20479;-76
2021/07/31 06:24:27;;;;;;;3.42;1.30;;;18.50;73.20;;;;;;5094331;28;20025;-77
2021/07/31 06:26:53;;;;;;;4.03;1.00;;;18.60;73.00;;;;;;5095361;28;20032;-76
2021/07/31 06:29:19;;;;;;;4.47;1.30;;;18.90;72.20;;;;;;5094555;28;20093;-76
2021/07/31 06:31:45;;;;;;;4.47;1.52;;;19.20;71.50;;;;;;5095465;28;20469;-81
2021/07/31 06:34:10;;;;;;;4.22;1.10;;;19.10;71.10;;;;;;5094124;28;20032;-76
2021/07/31 06:36:36;;;;;;;4.82;1.25;;;19.10;71.20;;;;;;5095660;28;20028;-76
2021/07/31 06:39:02;;;;;;;4.13;1.00;;;18.90;71.30;;;;;;5095243;28;20034;-76
2021/07/31 06:41:28;;;;;;;4.25;0.80;;;18.80;71.60;;;;;;5077132;28;20036;-77
2021/07/31 06:43:55;;;;;;;6.00;1.20;;;18.80;71.80;;;;;;5094215;28;20028;-77
2021/07/31 06:46:24;;;;;;;5.35;1.33;;;18.80;72.00;;;;;;5095692;28;20040;-75
2021/07/31 06:48:53;;;;;;;4.68;1.60;;;18.80;72.00;;;;;;5093718;28;20032;-77
2021/07/31 06:51:20;;;;;;;6.85;1.50;;;18.90;72.00;;;;;;5094503;28;20437;-75
2021/07/31 06:53:46;;;;;;;4.90;1.33;;;19.30;71.60;;;;;;5077635;28;20452;-77
2021/07/31 06:56:12;;;;;;;6.65;1.38;;;20.20;69.70;;;;;;5095098;28;20099;-76
2021/07/31 06:58:38;;;;;;;5.28;1.00;;;20.80;68.10;;;;;;5077081;28;20063;-76
2021/07/31 07:01:08;;;;;;;6.03;1.20;;;21.20;66.60;;;;;;5076719;28;20028;-77
2021/07/31 07:03:34;;;;;;;4.15;1.30;;;21.00;66.40;;;;;;5077063;28;20035;-76
2021/07/31 07:06:04;;;;;;;3.67;1.05;;;20.70;66.70;;;;;;5076524;28;20032;-76
2021/07/31 07:08:29;;;;;;;4.85;1.08;;;20.30;67.30;;;;;;5094773;28;20119;-76
2021/07/31 07:10:55;;;;;;;4.47;1.25;;;20.00;67.80;;;;;;5093806;28;20119;-76
2021/07/31 07:13:20;;;;;;;4.30;1.23;;;19.80;68.60;;;;;;5077219;28;20067;-76
2021/07/31 07:15:46;;;;;;;2.72;0.90;;;19.60;69.00;;;;;;5093553;28;20115;-76
2021/07/31 07:18:12;;;;;;;3.75;1.00;;;19.60;69.10;;;;;;5076332;28;20445;-76
2021/07/31 07:20:37;;;;;;;3.05;0.93;;;19.70;69.10;;;;;;5076598;28;20044;-77
2021/07/31 07:23:03;;;;;;;3.20;1.00;;;19.70;69.00;;;;;;5098692;28;20024;-76
2021/07/31 07:25:28;;;;;;;5.13;1.00;;;19.70;69.00;;;;;;5096913;28;20467;-75
2021/07/31 07:27:54;;;;;;;5.32;0.90;;;19.70;68.70;;;;;;5093352;28;20032;-83
2021/07/31 07:30:20;;;;;;;4.63;0.80;;;19.60;68.70;;;;;;5093399;28;20024;-76
2021/07/31 07:32:46;;;;;;;4.55;0.93;;;19.60;68.90;;;;;;5060149;28;20162;-75
2021/07/31 07:35:12;;;;;;;4.13;1.10;;;19.60;68.80;;;;;;5093177;28;20040;-77
2021/07/31 07:37:37;;;;;;;3.88;1.10;;;19.50;68.80;;;;;;5076515;28;20039;-76
2021/07/31 07:40:04;;;;;;;4.03;1.00;;;19.50;69.00;;;;;;5092447;28;20055;-77
2021/07/31 07:42:29;;;;;;;6.13;1.00;;;19.40;69.30;;;;;;5092762;28;20060;-76
2021/07/31 07:44:55;;;;;;;2.83;0.80;;;19.50;69.20;;;;;;5093363;28;20051;-83
2021/07/31 07:47:21;;;;;;;7.18;1.20;;;19.70;68.90;;;;;;5092679;28;20028;-76
2021/07/31 07:49:46;;;;;;;3.20;0.88;;;19.90;68.40;;;;;;5092942;28;20106;-77
2021/07/31 07:52:12;;;;;;;2.65;1.00;;;20.10;67.80;;;;;;5092253;28;20119;-76
2021/07/31 07:54:38;;;;;;;6.38;1.20;;;20.40;67.60;;;;;;5092675;28;20032;-76
2021/07/31 07:57:07;;;;;;;5.05;1.00;;;20.70;67.00;;;;;;5076138;28;20024;-76
2021/07/31 07:59:35;;;;;;;4.70;1.20;;;20.80;66.40;;;;;;5076695;28;20523;-77
2021/07/31 08:02:02;;;;;;;6.43;1.30;;;20.80;65.90;;;;;;5092794;28;20456;-76
2021/07/31 08:04:32;;;;;;;2.03;0.80;;;20.90;65.80;;;;;;5093675;28;20108;-77
2021/07/31 08:06:58;;;;;;;8.40;1.10;;;21.10;65.70;;;;;;5076504;28;20418;-82
2021/07/31 08:09:23;;;;;;;4.57;0.90;;;21.50;64.90;;;;;;5092814;28;20032;-78
2021/07/31 08:11:49;;;;;;;4.80;1.00;;;21.70;64.20;;;;;;5093789;28;20032;-76
2021/07/31 08:14:15;;;;;;;4.85;1.05;;;21.90;63.60;;;;;;5092792;28;20028;-77
2021/07/31 08:16:40;;;;;;;4.72;1.50;;;22.30;63.00;;;;;;5075435;28;20054;-77
2021/07/31 08:19:06;;;;;;;4.82;1.00;;;22.30;62.60;;;;;;5092357;28;20064;-77
2021/07/31 08:21:33;;;;;;;5.97;1.40;;;22.20;62.50;;;;;;5092834;28;20034;-76
2021/07/31 08:23:58;;;;;;;6.10;1.70;;;22.00;62.90;;;;;;5092045;28;20517;-78
2021/07/31 08:26:24;;;;;;;7.28;1.92;;;21.60;63.70;;;;;;5092282;28;20036;-76
2021/07/31 08:28:50;;;;;;;4.85;1.73;;;21.40;64.20;;;;;;5092083;28;20016;-76
2021/07/31 08:31:16;;;;;;;4.45;1.48;;;21.30;64.50;;;;;;5093071;28;20365;-76
2021/07/31 08:33:42;;;;;;;9.88;1.83;;;21.20;65.30;;;;;;5093740;28;20099;-76
2021/07/31 08:36:09;;;;;;;6.03;1.50;;;21.20;64.70;;;;;;5075481;28;20442;-77
2021/07/31 08:38:35;;;;;;;5.00;1.20;;;21.50;64.20;;;;;;5092998;28;20051;-76
2021/07/31 08:41:01;;;;;;;3.65;1.40;;;21.70;63.90;;;;;;5092154;28;20020;-79
2021/07/31 08:43:28;;;;;;;5.68;1.23;;;21.70;63.10;;;;;;5095511;28;20052;-76
2021/07/31 08:45:54;;;;;;;3.92;1.08;;;21.70;63.20;;;;;;5095870;28;20040;-76
2021/07/31 08:48:28;;;;;;;5.38;1.20;;;21.70;62.70;;;;;;5097254;28;20103;-77
2021/07/31 08:50:59;;;;;;;3.22;0.90;;;21.90;62.50;;;;;;5096061;28;20483;-78
2021/07/31 08:53:31;;;;;;;7.00;1.00;;;22.00;62.20;;;;;;5095777;28;20022;-77
2021/07/31 08:55:58;;;;;;;6.43;1.55;;;21.90;61.80;;;;;;5083404;28;20450;-77
2021/07/31 08:58:25;;;;;;;4.15;1.20;;;21.80;61.80;;;;;;5082478;28;20108;-77
2021/07/31 09:00:51;;;;;;;3.47;1.10;;;21.70;62.40;;;;;;5098578;28;20024;-75
2021/07/31 09:03:18;;;;;;;3.20;1.13;;;21.70;62.80;;;;;;5099579;28;20018;-76
2021/07/31 09:05:44;;;;;;;3.78;1.50;;;21.90;62.60;;;;;;5099155;28;20024;-77
2021/07/31 09:08:10;;;;;;;6.55;1.42;;;22.30;61.90;;;;;;5098552;28;20119;-78
2021/07/31 09:10:46;;;;;;;4.95;1.50;;;22.60;61.40;;;;;;5098367;28;20027;-76
2021/07/31 09:13:17;;;;;;;3.03;1.27;;;23.30;61.00;;;;;;5100115;28;20027;-77
2021/07/31 09:15:47;;;;;;;4.28;1.00;;;24.00;58.90;;;;;;5100632;28;20024;-76
2021/07/31 09:18:33;;;;;;;4.20;0.90;;;24.10;57.80;;;;;;5096656;28;20020;-77
2021/07/31 09:21:00;;;;;;;2.50;1.15;;;24.40;57.60;;;;;;5095694;28;20032;-77
2021/07/31 09:23:52;;;;;;;5.93;0.95;;;25.20;56.50;;;;;;5095354;28;20024;-77
2021/07/31 09:26:36;;;;;;;3.15;0.80;;;25.80;53.80;;;;;;5095940;28;20534;-76
2021/07/31 09:29:03;;;;;;;1.67;0.50;;;26.20;52.20;;;;;;5095142;28;20024;-76
2021/07/31 09:31:30;;;;;;;2.35;0.63;;;26.50;50.50;;;;;;5095427;28;20107;-76
2021/07/31 09:33:59;;;;;;;2.13;0.60;;;26.30;49.70;;;;;;5095455;28;20472;-76
2021/07/31 09:36:37;;;;;;;1.63;0.40;;;26.20;49.80;;;;;;5095350;28;20028;-77
2021/07/31 09:39:05;;;;;;;3.03;0.50;;;26.00;49.50;;;;;;5097315;28;20017;-77
2021/07/31 09:41:36;;;;;;;3.55;0.73;;;25.80;49.70;;;;;;5095156;28;20012;-76
2021/07/31 09:44:06;;;;;;;4.03;0.40;;;25.40;49.90;;;;;;5094677;28;20052;-81
2021/07/31 09:46:43;;;;;;;1.70;0.50;;;24.90;50.60;;;;;;5095020;28;20028;-78
2021/07/31 09:49:15;;;;;;;2.40;0.60;;;24.50;51.60;;;;;;5095066;28;20108;-75
2021/07/31 09:51:48;;;;;;;1.60;0.50;;;24.20;52.70;;;;;;5095483;28;20115;-77
2021/07/31 09:54:16;;;;;;;2.50;0.50;;;23.80;53.80;;;;;;5094624;28;20032;-81
2021/07/31 09:56:47;;;;;;;1.25;0.40;;;23.50;54.20;;;;;;5095777;28;20397;-76
2021/07/31 09:59:15;;;;;;;2.33;0.52;;;23.20;54.60;;;;;;5094956;28;20023;-84
2021/07/31 10:01:47;;;;;;;2.42;0.60;;;23.00;55.40;;;;;;5094822;28;20035;-76
2021/07/31 10:04:13;;;;;;;1.53;0.50;;;23.00;55.90;;;;;;5096019;28;20027;-80
2021/07/31 10:06:39;;;;;;;4.00;0.50;;;22.90;55.90;;;;;;5095938;28;20028;-76
2021/07/31 10:09:06;;;;;;;3.75;0.52;;;22.80;55.50;;;;;;5094581;28;20032;-75
2021/07/31 10:11:37;;;;;;;1.48;0.50;;;22.60;56.10;;;;;;5094473;28;20043;-76
2021/07/31 10:14:05;;;;;;;3.15;0.65;;;22.60;56.70;;;;;;5095564;28;20024;-79
2021/07/31 10:16:33;;;;;;;2.75;0.52;;;22.70;57.00;;;;;;5095790;28;20024;-76
2021/07/31 10:19:10;;;;;;;2.58;0.40;;;22.80;56.90;;;;;;5099616;28;20517;-77
2021/07/31 10:21:58;;;;;;;1.52;0.60;;;22.90;56.60;;;;;;5101432;28;20020;-78
2021/07/31 10:24:24;;;;;;;1.77;0.60;;;22.80;56.70;;;;;;5100486;28;20021;-78
2021/07/31 10:27:14;;;;;;;1.25;0.50;;;22.80;57.00;;;;;;5100079;28;20349;-77
2021/07/31 10:29:40;;;;;;;2.70;0.60;;;22.90;57.20;;;;;;5098505;28;20111;-76
2021/07/31 10:32:21;;;;;;;1.67;0.50;;;23.20;57.30;;;;;;5098948;28;20407;-78
2021/07/31 10:34:56;;;;;;;1.65;0.50;;;23.90;56.40;;;;;;5098007;28;20507;-77
2021/07/31 10:37:29;;;;;;;1.48;0.40;;;24.60;54.20;;;;;;5098709;28;20020;-78
2021/07/31 10:39:56;;;;;;;2.50;0.40;;;24.90;53.00;;;;;;5098517;28;20028;-78
2021/07/31 10:42:22;;;;;;;1.65;0.40;;;25.00;52.50;;;;;;5096790;28;20048;-78
2021/07/31 10:45:15;;;;;;;1.38;0.40;;;25.10;52.10;;;;;;5096788;28;20048;-76
2021/07/31 10:47:49;;;;;;;1.05;0.30;;;25.20;51.50;;;;;;5098367;28;20019;-76
2021/07/31 10:50:27;;;;;;;1.67;0.40;;;25.00;51.00;;;;;;5097483;28;20024;-77
2021/07/31 10:53:05;;;;;;;1.10;0.40;;;24.90;51.50;;;;;;5096624;28;20024;-76
2021/07/31 10:55:37;;;;;;;1.80;0.38;;;24.70;51.90;;;;;;5082250;28;20039;-78
2021/07/31 10:58:16;;;;;;;3.60;0.70;;;24.60;52.30;;;;;;5098572;28;20494;-77
2021/07/31 11:00:43;;;;;;;2.47;0.40;;;24.60;52.80;;;;;;5097910;28;20020;-78
2021/07/31 11:03:13;;;;;;;4.20;0.50;;;24.60;52.60;;;;;;5098700;28;20024;-78
2021/07/31 11:05:51;;;;;;;2.78;0.50;;;24.50;52.30;;;;;;5100591;28;20468;-78
2021/07/31 11:08:20;;;;;;;2.08;0.52;;;24.30;52.70;;;;;;5102500;28;20460;-76
2021/07/31 11:10:48;;;;;;;2.45;0.47;;;24.10;53.30;;;;;;5101910;28;20031;-77
2021/07/31 11:13:16;;;;;;;0.95;0.40;;;23.90;53.60;;;;;;5101595;28;20032;-77
2021/07/31 11:16:02;;;;;;;2.30;0.50;;;23.60;54.10;;;;;;5100340;28;20024;-76
2021/07/31 11:18:37;;;;;;;1.73;0.50;;;23.20;54.90;;;;;;5100083;28;20023;-79
2021/07/31 11:21:18;;;;;;;2.60;0.40;;;23.00;55.50;;;;;;5099296;28;20020;-77
2021/07/31 11:24:08;;;;;;;1.50;0.60;;;22.80;56.20;;;;;;5099705;28;20432;-78
2021/07/31 11:26:36;;;;;;;1.85;0.50;;;22.80;56.70;;;;;;5100955;28;20040;-78
2021/07/31 11:29:14;;;;;;;2.83;0.73;;;22.80;56.60;;;;;;5100295;28;20487;-78
2021/07/31 11:31:42;;;;;;;2.63;0.50;;;22.90;56.20;;;;;;5100945;28;20080;-78
2021/07/31 11:34:09;;;;;;;2.50;0.50;;;23.00;55.80;;;;;;5097993;28;20075;-75
2021/07/31 11:36:55;;;;;;;2.92;0.50;;;23.00;55.20;;;;;;5095519;28;20029;-77
2021/07/31 11:39:21;;;;;;;1.90;0.40;;;22.90;55.10;;;;;;5096881;28;20020;-77
2021/07/31 11:41:48;;;;;;;1.33;0.50;;;22.90;56.00;;;;;;5095491;28;20017;-75
2021/07/31 11:44:32;;;;;;;1.85;0.50;;;22.80;57.40;;;;;;5094874;28;20056;-76
2021/07/31 11:46:59;;;;;;;1.70;0.50;;;22.50;58.90;;;;;;5095069;28;20043;-78
2021/07/31 11:49:45;;;;;;;4.93;0.70;;;22.30;60.00;;;;;;5096251;28;20058;-79
2021/07/31 11:52:11;;;;;;;1.67;0.70;;;22.20;60.40;;;;;;5095692;28;20020;-81
2021/07/31 11:54:42;;;;;;;2.80;0.88;;;22.20;60.60;;;;;;5094500;28;20027;-78
2021/07/31 11:57:08;;;;;;;3.03;0.88;;;22.20;60.70;;;;;;5095963;28;20098;-78
2021/07/31 11:59:36;;;;;;;1.77;0.60;;;22.30;60.80;;;;;;5078085;28;20060;-77
2021/07/31 12:02:02;;;;;;;1.52;0.63;;;22.30;60.60;;;;;;5095181;28;20024;-76
2021/07/31 12:04:46;;;;;;;2.10;0.60;;;22.60;59.90;;;;;;5095533;28;20028;-81
2021/07/31 12:07:19;;;;;;;3.38;0.60;;;23.00;58.60;;;;;;5097498;28;20024;-77
2021/07/31 12:10:06;;;;;;;2.33;0.50;;;23.30;57.80;;;;;;5096473;28;20049;-78
2021/07/31 12:12:36;;;;;;;1.90;0.60;;;23.50;57.50;;;;;;5093900;28;20051;-80
2021/07/31 12:15:19;;;;;;;2.03;0.65;;;23.50;58.00;;;;;;5093882;28;20110;-76
2021/07/31 12:17:53;;;;;;;2.42;0.63;;;23.30;58.80;;;;;;5094142;28;20051;-76
2021/07/31 12:20:35;;;;;;;2.03;0.60;;;23.00;59.20;;;;;;5093126;28;20035;-76
2021/07/31 12:23:03;;;;;;;3.25;0.60;;;22.90;60.20;;;;;;5093165;28;20051;-78
2021/07/31 12:25:30;;;;;;;1.92;0.70;;;22.90;60.70;;;;;;5093133;28;20025;-77
2021/07/31 12:28:09;;;;;;;3.33;0.80;;;23.00;60.20;;;;;;5093138;28;20119;-77
2021/07/31 12:30:35;;;;;;;2.45;0.70;;;23.10;60.00;;;;;;5077032;28;20397;-77
2021/07/31 12:33:07;;;;;;;2.60;0.68;;;23.30;60.10;;;;;;5093060;28;20059;-78
2021/07/31 12:35:46;;;;;;;2.60;0.60;;;23.40;60.00;;;;;;5093573;28;20028;-83
2021/07/31 12:38:23;;;;;;;2.25;0.70;;;23.60;59.10;;;;;;5093541;28;20431;-76
2021/07/31 12:40:54;;;;;;;1.23;0.57;;;23.80;58.60;;;;;;5077240;28;20052;-76
2021/07/31 12:43:24;;;;;;;1.40;0.70;;;24.00;58.10;;;;;;5093653;28;20048;-77
2021/07/31 12:45:52;;;;;;;2.88;0.57;;;24.20;57.30;;;;;;5092599;28;20028;-78
2021/07/31 12:48:17;;;;;;;2.38;0.60;;;24.50;56.40;;;;;;5093748;28;20574;-76
2021/07/31 12:50:47;;;;;;;1.73;0.50;;;24.70;56.00;;;;;;5095052;28;20055;-78
2021/07/31 12:53:14;;;;;;;1.08;0.50;;;24.90;55.90;;;;;;5093338;28;20434;-78